sensor_id;sensor_type;location;lat;lon;timestamp;P1;durP1;ratioP1;P2;durP2;ratioP2
63536;SDS011;49686;51.880;5.632;2023-03-01T00:00:38;7.55;;;4.80;;
63536;SDS011;49686;51.880;5.632;2023-03-01T00:03:05;6.78;;;4.25;;
63536;SDS011;49686;51.880;5.632;2023-03-01T00:05:33;7.60;;;4.88;;
63536;SDS011;49686;51.880;5.632;2023-03-01T00:08:00;10.23;;;4.27;;
63536;SDS011;49686;51.880;5.632;2023-03-01T00:10:28;9.18;;;4.85;;
63536;SDS011;49686;51.880;5.632;2023-03-01T00:12:55;8.73;;;4.78;;
63536;SDS011;49686;51.880;5.632;2023-03-01T00:15:22;7.25;;;4.88;;
63536;SDS011;49686;51.880;5.632;2023-03-01T00:17:48;6.88;;;4.07;;
63536;SDS011;49686;51.880;5.632;2023-03-01T00:20:15;9.60;;;4.97;;
63536;SDS011;49686;51.880;5.632;2023-03-01T00:22:43;7.80;;;5.03;;
63536;SDS011;49686;51.880;5.632;2023-03-01T00:25:10;8.03;;;5.10;;
63536;SDS011;49686;51.880;5.632;2023-03-01T00:27:37;7.78;;;4.30;;
63536;SDS011;49686;51.880;5.632;2023-03-01T00:30:04;7.65;;;4.22;;
63536;SDS011;49686;51.880;5.632;2023-03-01T00:32:32;8.25;;;4.75;;
63536;SDS011;49686;51.880;5.632;2023-03-01T00:34:59;5.57;;;3.28;;
63536;SDS011;49686;51.880;5.632;2023-03-01T00:37:27;7.03;;;4.70;;
63536;SDS011;49686;51.880;5.632;2023-03-01T00:39:55;9.98;;;4.82;;
63536;SDS011;49686;51.880;5.632;2023-03-01T00:42:22;8.75;;;5.38;;
63536;SDS011;49686;51.880;5.632;2023-03-01T00:44:49;7.40;;;4.70;;
63536;SDS011;49686;51.880;5.632;2023-03-01T00:47:15;8.68;;;5.40;;
63536;SDS011;49686;51.880;5.632;2023-03-01T00:49:42;9.68;;;5.30;;
63536;SDS011;49686;51.880;5.632;2023-03-01T00:52:09;9.93;;;5.10;;
63536;SDS011;49686;51.880;5.632;2023-03-01T00:54:36;10.73;;;5.45;;
63536;SDS011;49686;51.880;5.632;2023-03-01T00:57:04;10.95;;;5.80;;
63536;SDS011;49686;51.880;5.632;2023-03-01T00:59:31;11.57;;;6.50;;
63536;SDS011;49686;51.880;5.632;2023-03-01T01:01:57;11.27;;;5.88;;
63536;SDS011;49686;51.880;5.632;2023-03-01T01:04:24;11.30;;;5.82;;
63536;SDS011;49686;51.880;5.632;2023-03-01T01:06:52;12.63;;;6.60;;
63536;SDS011;49686;51.880;5.632;2023-03-01T01:09:19;11.60;;;5.57;;
63536;SDS011;49686;51.880;5.632;2023-03-01T01:11:47;9.48;;;6.00;;
63536;SDS011;49686;51.880;5.632;2023-03-01T01:14:16;8.73;;;5.43;;
63536;SDS011;49686;51.880;5.632;2023-03-01T01:16:44;7.00;;;4.45;;
63536;SDS011;49686;51.880;5.632;2023-03-01T01:19:11;9.48;;;5.60;;
63536;SDS011;49686;51.880;5.632;2023-03-01T01:21:38;9.88;;;5.65;;
63536;SDS011;49686;51.880;5.632;2023-03-01T01:24:05;9.40;;;5.47;;
63536;SDS011;49686;51.880;5.632;2023-03-01T01:26:33;12.45;;;6.32;;
63536;SDS011;49686;51.880;5.632;2023-03-01T01:29:00;11.85;;;6.30;;
63536;SDS011;49686;51.880;5.632;2023-03-01T01:31:30;8.32;;;4.97;;
63536;SDS011;49686;51.880;5.632;2023-03-01T01:33:58;11.50;;;6.07;;
63536;SDS011;49686;51.880;5.632;2023-03-01T01:36:26;8.40;;;5.30;;
63536;SDS011;49686;51.880;5.632;2023-03-01T01:38:54;12.13;;;5.50;;
63536;SDS011;49686;51.880;5.632;2023-03-01T01:41:21;9.45;;;5.45;;
63536;SDS011;49686;51.880;5.632;2023-03-01T01:43:49;10.82;;;6.35;;
63536;SDS011;49686;51.880;5.632;2023-03-01T01:46:37;9.45;;;5.97;;
63536;SDS011;49686;51.880;5.632;2023-03-01T01:49:07;9.88;;;5.38;;
63536;SDS011;49686;51.880;5.632;2023-03-01T01:51:44;6.75;;;3.83;;
63536;SDS011;49686;51.880;5.632;2023-03-01T01:54:14;8.38;;;5.53;;
63536;SDS011;49686;51.880;5.632;2023-03-01T01:56:47;10.90;;;5.55;;
63536;SDS011;49686;51.880;5.632;2023-03-01T01:59:17;12.32;;;5.93;;
63536;SDS011;49686;51.880;5.632;2023-03-01T02:01:45;10.90;;;6.60;;
63536;SDS011;49686;51.880;5.632;2023-03-01T02:04:12;7.67;;;4.60;;
63536;SDS011;49686;51.880;5.632;2023-03-01T02:06:39;9.73;;;5.07;;
63536;SDS011;49686;51.880;5.632;2023-03-01T02:09:12;8.93;;;5.13;;
63536;SDS011;49686;51.880;5.632;2023-03-01T02:11:41;8.63;;;4.90;;
63536;SDS011;49686;51.880;5.632;2023-03-01T02:14:09;11.82;;;6.07;;
63536;SDS011;49686;51.880;5.632;2023-03-01T02:16:36;11.82;;;6.25;;
63536;SDS011;49686;51.880;5.632;2023-03-01T02:19:05;9.95;;;5.65;;
63536;SDS011;49686;51.880;5.632;2023-03-01T02:21:36;10.38;;;6.45;;
63536;SDS011;49686;51.880;5.632;2023-03-01T02:24:10;8.52;;;4.90;;
63536;SDS011;49686;51.880;5.632;2023-03-01T02:26:48;10.15;;;6.57;;
63536;SDS011;49686;51.880;5.632;2023-03-01T02:29:19;10.38;;;5.35;;
63536;SDS011;49686;51.880;5.632;2023-03-01T02:34:14;10.38;;;6.30;;
63536;SDS011;49686;51.880;5.632;2023-03-01T02:36:44;10.93;;;6.78;;
63536;SDS011;49686;51.880;5.632;2023-03-01T02:39:14;9.23;;;5.22;;
63536;SDS011;49686;51.880;5.632;2023-03-01T02:41:44;12.88;;;6.78;;
63536;SDS011;49686;51.880;5.632;2023-03-01T02:44:14;11.90;;;6.97;;
63536;SDS011;49686;51.880;5.632;2023-03-01T02:46:44;12.73;;;6.50;;
63536;SDS011;49686;51.880;5.632;2023-03-01T02:49:21;12.98;;;6.38;;
63536;SDS011;49686;51.880;5.632;2023-03-01T02:54:43;8.77;;;4.78;;
63536;SDS011;49686;51.880;5.632;2023-03-01T02:57:16;10.45;;;5.55;;
63536;SDS011;49686;51.880;5.632;2023-03-01T02:59:43;9.20;;;5.00;;
63536;SDS011;49686;51.880;5.632;2023-03-01T03:02:19;11.80;;;5.90;;
63536;SDS011;49686;51.880;5.632;2023-03-01T03:04:48;7.95;;;5.43;;
63536;SDS011;49686;51.880;5.632;2023-03-01T03:07:15;7.30;;;4.07;;
63536;SDS011;49686;51.880;5.632;2023-03-01T03:09:43;10.25;;;5.15;;
63536;SDS011;49686;51.880;5.632;2023-03-01T03:12:10;9.13;;;5.57;;
63536;SDS011;49686;51.880;5.632;2023-03-01T03:14:38;11.80;;;5.57;;
63536;SDS011;49686;51.880;5.632;2023-03-01T03:17:05;7.88;;;4.32;;
63536;SDS011;49686;51.880;5.632;2023-03-01T03:19:33;8.43;;;4.47;;
63536;SDS011;49686;51.880;5.632;2023-03-01T03:22:00;7.82;;;4.57;;
63536;SDS011;49686;51.880;5.632;2023-03-01T03:24:27;7.43;;;3.90;;
63536;SDS011;49686;51.880;5.632;2023-03-01T03:26:53;9.05;;;4.13;;
63536;SDS011;49686;51.880;5.632;2023-03-01T03:29:20;6.20;;;3.70;;
63536;SDS011;49686;51.880;5.632;2023-03-01T03:31:47;9.02;;;4.30;;
63536;SDS011;49686;51.880;5.632;2023-03-01T03:34:14;6.95;;;4.45;;
63536;SDS011;49686;51.880;5.632;2023-03-01T03:36:42;9.10;;;5.35;;
63536;SDS011;49686;51.880;5.632;2023-03-01T03:39:09;8.40;;;5.20;;
63536;SDS011;49686;51.880;5.632;2023-03-01T03:41:35;7.95;;;4.65;;
63536;SDS011;49686;51.880;5.632;2023-03-01T03:44:02;6.03;;;3.60;;
63536;SDS011;49686;51.880;5.632;2023-03-01T03:46:29;8.35;;;4.75;;
63536;SDS011;49686;51.880;5.632;2023-03-01T03:48:56;7.65;;;4.63;;
63536;SDS011;49686;51.880;5.632;2023-03-01T03:51:23;7.13;;;4.05;;
63536;SDS011;49686;51.880;5.632;2023-03-01T03:53:51;6.32;;;3.92;;
63536;SDS011;49686;51.880;5.632;2023-03-01T03:56:18;7.85;;;4.20;;
63536;SDS011;49686;51.880;5.632;2023-03-01T03:58:45;8.52;;;4.53;;
63536;SDS011;49686;51.880;5.632;2023-03-01T04:01:11;8.85;;;5.07;;
63536;SDS011;49686;51.880;5.632;2023-03-01T04:03:38;7.07;;;4.35;;
63536;SDS011;49686;51.880;5.632;2023-03-01T04:06:08;7.30;;;4.10;;
63536;SDS011;49686;51.880;5.632;2023-03-01T04:08:35;9.10;;;5.53;;
63536;SDS011;49686;51.880;5.632;2023-03-01T04:11:03;7.90;;;4.40;;
63536;SDS011;49686;51.880;5.632;2023-03-01T04:13:30;9.80;;;4.82;;
63536;SDS011;49686;51.880;5.632;2023-03-01T04:15:57;7.68;;;4.63;;
63536;SDS011;49686;51.880;5.632;2023-03-01T04:18:24;9.70;;;4.30;;
63536;SDS011;49686;51.880;5.632;2023-03-01T04:20:54;8.00;;;4.57;;
63536;SDS011;49686;51.880;5.632;2023-03-01T04:23:21;7.85;;;4.28;;
63536;SDS011;49686;51.880;5.632;2023-03-01T04:25:48;7.68;;;4.45;;
63536;SDS011;49686;51.880;5.632;2023-03-01T04:30:44;10.13;;;4.50;;
63536;SDS011;49686;51.880;5.632;2023-03-01T04:33:11;8.02;;;4.28;;
63536;SDS011;49686;51.880;5.632;2023-03-01T04:35:38;7.65;;;4.28;;
63536;SDS011;49686;51.880;5.632;2023-03-01T04:38:08;5.93;;;3.88;;
63536;SDS011;49686;51.880;5.632;2023-03-01T04:40:35;8.68;;;4.38;;
63536;SDS011;49686;51.880;5.632;2023-03-01T04:43:02;8.55;;;4.55;;
63536;SDS011;49686;51.880;5.632;2023-03-01T04:45:32;6.65;;;4.28;;
63536;SDS011;49686;51.880;5.632;2023-03-01T04:47:59;7.80;;;4.68;;
63536;SDS011;49686;51.880;5.632;2023-03-01T04:50:26;9.50;;;4.93;;
63536;SDS011;49686;51.880;5.632;2023-03-01T04:52:53;8.68;;;5.07;;
63536;SDS011;49686;51.880;5.632;2023-03-01T04:55:20;8.73;;;5.30;;
63536;SDS011;49686;51.880;5.632;2023-03-01T04:57:47;13.98;;;5.72;;
63536;SDS011;49686;51.880;5.632;2023-03-01T05:00:14;9.05;;;4.30;;
63536;SDS011;49686;51.880;5.632;2023-03-01T05:02:43;8.27;;;4.55;;
63536;SDS011;49686;51.880;5.632;2023-03-01T05:05:10;7.57;;;4.50;;
63536;SDS011;49686;51.880;5.632;2023-03-01T05:07:37;8.73;;;4.72;;
63536;SDS011;49686;51.880;5.632;2023-03-01T05:10:04;7.93;;;4.40;;
63536;SDS011;49686;51.880;5.632;2023-03-01T05:12:31;9.70;;;5.22;;
63536;SDS011;49686;51.880;5.632;2023-03-01T05:14:57;7.90;;;4.22;;
63536;SDS011;49686;51.880;5.632;2023-03-01T05:17:24;8.93;;;5.53;;
63536;SDS011;49686;51.880;5.632;2023-03-01T05:19:52;8.38;;;5.15;;
63536;SDS011;49686;51.880;5.632;2023-03-01T05:22:19;7.77;;;4.30;;
63536;SDS011;49686;51.880;5.632;2023-03-01T05:24:46;8.43;;;4.63;;
63536;SDS011;49686;51.880;5.632;2023-03-01T05:27:13;6.80;;;4.45;;
63536;SDS011;49686;51.880;5.632;2023-03-01T05:29:41;8.50;;;5.25;;
63536;SDS011;49686;51.880;5.632;2023-03-01T05:32:07;7.68;;;4.97;;
63536;SDS011;49686;51.880;5.632;2023-03-01T05:34:35;10.95;;;5.10;;
63536;SDS011;49686;51.880;5.632;2023-03-01T05:37:06;6.85;;;3.92;;
63536;SDS011;49686;51.880;5.632;2023-03-01T05:39:33;9.15;;;4.72;;
63536;SDS011;49686;51.880;5.632;2023-03-01T05:42:00;8.80;;;5.45;;
63536;SDS011;49686;51.880;5.632;2023-03-01T05:44:28;10.10;;;5.97;;
63536;SDS011;49686;51.880;5.632;2023-03-01T05:46:55;6.78;;;3.15;;
63536;SDS011;49686;51.880;5.632;2023-03-01T05:49:22;7.70;;;4.43;;
63536;SDS011;49686;51.880;5.632;2023-03-01T05:51:51;8.93;;;5.25;;
63536;SDS011;49686;51.880;5.632;2023-03-01T05:54:20;10.02;;;5.60;;
63536;SDS011;49686;51.880;5.632;2023-03-01T05:59:14;7.47;;;4.10;;
63536;SDS011;49686;51.880;5.632;2023-03-01T06:01:41;10.77;;;5.70;;
63536;SDS011;49686;51.880;5.632;2023-03-01T06:04:08;8.27;;;4.88;;
63536;SDS011;49686;51.880;5.632;2023-03-01T06:06:35;8.43;;;5.07;;
63536;SDS011;49686;51.880;5.632;2023-03-01T06:09:02;10.13;;;5.20;;
63536;SDS011;49686;51.880;5.632;2023-03-01T06:11:31;9.02;;;5.15;;
63536;SDS011;49686;51.880;5.632;2023-03-01T06:13:59;9.60;;;5.28;;
63536;SDS011;49686;51.880;5.632;2023-03-01T06:16:26;8.68;;;5.30;;
63536;SDS011;49686;51.880;5.632;2023-03-01T06:18:53;9.00;;;4.80;;
63536;SDS011;49686;51.880;5.632;2023-03-01T06:21:20;10.10;;;5.22;;
63536;SDS011;49686;51.880;5.632;2023-03-01T06:23:47;8.73;;;5.00;;
63536;SDS011;49686;51.880;5.632;2023-03-01T06:26:14;10.73;;;5.07;;
63536;SDS011;49686;51.880;5.632;2023-03-01T06:28:42;8.65;;;5.22;;
63536;SDS011;49686;51.880;5.632;2023-03-01T06:31:09;7.90;;;4.95;;
63536;SDS011;49686;51.880;5.632;2023-03-01T06:33:36;11.27;;;5.65;;
63536;SDS011;49686;51.880;5.632;2023-03-01T06:36:03;10.50;;;6.78;;
63536;SDS011;49686;51.880;5.632;2023-03-01T06:38:30;12.45;;;6.88;;
63536;SDS011;49686;51.880;5.632;2023-03-01T06:40:57;10.77;;;5.47;;
63536;SDS011;49686;51.880;5.632;2023-03-01T06:43:23;12.35;;;6.03;;
63536;SDS011;49686;51.880;5.632;2023-03-01T06:45:52;11.15;;;6.03;;
63536;SDS011;49686;51.880;5.632;2023-03-01T06:48:18;11.65;;;6.13;;
63536;SDS011;49686;51.880;5.632;2023-03-01T06:50:45;12.07;;;6.50;;
63536;SDS011;49686;51.880;5.632;2023-03-01T06:53:12;10.63;;;5.75;;
63536;SDS011;49686;51.880;5.632;2023-03-01T06:55:39;11.38;;;5.70;;
63536;SDS011;49686;51.880;5.632;2023-03-01T06:58:06;11.65;;;6.03;;
63536;SDS011;49686;51.880;5.632;2023-03-01T07:00:32;10.57;;;5.97;;
63536;SDS011;49686;51.880;5.632;2023-03-01T07:03:01;10.73;;;6.13;;
63536;SDS011;49686;51.880;5.632;2023-03-01T07:05:28;13.27;;;6.43;;
63536;SDS011;49686;51.880;5.632;2023-03-01T07:07:55;10.40;;;5.20;;
63536;SDS011;49686;51.880;5.632;2023-03-01T07:10:22;13.48;;;6.18;;
63536;SDS011;49686;51.880;5.632;2023-03-01T07:12:49;9.10;;;4.57;;
63536;SDS011;49686;51.880;5.632;2023-03-01T07:15:16;10.65;;;5.63;;
63536;SDS011;49686;51.880;5.632;2023-03-01T07:17:43;9.90;;;5.28;;
63536;SDS011;49686;51.880;5.632;2023-03-01T07:20:11;11.02;;;5.05;;
63536;SDS011;49686;51.880;5.632;2023-03-01T07:22:39;32.00;;;15.23;;
63536;SDS011;49686;51.880;5.632;2023-03-01T07:25:07;24.43;;;15.37;;
63536;SDS011;49686;51.880;5.632;2023-03-01T07:27:34;16.58;;;9.35;;
63536;SDS011;49686;51.880;5.632;2023-03-01T07:30:01;12.77;;;7.28;;
63536;SDS011;49686;51.880;5.632;2023-03-01T07:32:28;10.88;;;6.28;;
63536;SDS011;49686;51.880;5.632;2023-03-01T07:34:55;12.93;;;6.53;;
63536;SDS011;49686;51.880;5.632;2023-03-01T07:37:24;12.00;;;6.45;;
63536;SDS011;49686;51.880;5.632;2023-03-01T07:39:50;9.82;;;5.70;;
63536;SDS011;49686;51.880;5.632;2023-03-01T07:42:17;9.45;;;5.90;;
63536;SDS011;49686;51.880;5.632;2023-03-01T07:44:44;8.43;;;5.53;;
63536;SDS011;49686;51.880;5.632;2023-03-01T07:47:11;9.43;;;5.68;;
63536;SDS011;49686;51.880;5.632;2023-03-01T07:49:38;10.45;;;4.72;;
63536;SDS011;49686;51.880;5.632;2023-03-01T07:52:04;8.75;;;4.47;;
63536;SDS011;49686;51.880;5.632;2023-03-01T07:54:33;9.07;;;3.33;;
63536;SDS011;49686;51.880;5.632;2023-03-01T07:57:00;9.20;;;5.88;;
63536;SDS011;49686;51.880;5.632;2023-03-01T07:59:26;6.60;;;4.20;;
63536;SDS011;49686;51.880;5.632;2023-03-01T08:01:53;10.43;;;5.68;;
63536;SDS011;49686;51.880;5.632;2023-03-01T08:04:21;8.95;;;5.60;;
63536;SDS011;49686;51.880;5.632;2023-03-01T08:06:48;13.10;;;5.30;;
63536;SDS011;49686;51.880;5.632;2023-03-01T08:09:15;11.52;;;5.47;;
63536;SDS011;49686;51.880;5.632;2023-03-01T08:11:43;11.55;;;6.03;;
63536;SDS011;49686;51.880;5.632;2023-03-01T08:14:10;12.65;;;5.35;;
63536;SDS011;49686;51.880;5.632;2023-03-01T08:16:37;8.73;;;4.50;;
63536;SDS011;49686;51.880;5.632;2023-03-01T08:19:05;9.85;;;5.45;;
63536;SDS011;49686;51.880;5.632;2023-03-01T08:21:34;11.75;;;6.13;;
63536;SDS011;49686;51.880;5.632;2023-03-01T08:24:01;10.43;;;5.40;;
63536;SDS011;49686;51.880;5.632;2023-03-01T08:26:28;10.75;;;5.75;;
63536;SDS011;49686;51.880;5.632;2023-03-01T08:28:57;9.32;;;5.70;;
63536;SDS011;49686;51.880;5.632;2023-03-01T08:31:24;12.60;;;5.90;;
63536;SDS011;49686;51.880;5.632;2023-03-01T08:33:53;9.55;;;5.97;;
63536;SDS011;49686;51.880;5.632;2023-03-01T08:38:48;8.65;;;5.13;;
63536;SDS011;49686;51.880;5.632;2023-03-01T08:41:15;9.55;;;5.68;;
63536;SDS011;49686;51.880;5.632;2023-03-01T08:43:42;8.73;;;5.65;;
63536;SDS011;49686;51.880;5.632;2023-03-01T08:46:11;9.65;;;6.28;;
63536;SDS011;49686;51.880;5.632;2023-03-01T08:48:38;7.97;;;5.70;;
63536;SDS011;49686;51.880;5.632;2023-03-01T08:51:09;10.25;;;6.45;;
63536;SDS011;49686;51.880;5.632;2023-03-01T08:53:37;9.57;;;5.35;;
63536;SDS011;49686;51.880;5.632;2023-03-01T08:56:04;8.90;;;5.97;;
63536;SDS011;49686;51.880;5.632;2023-03-01T08:58:31;8.30;;;5.05;;
63536;SDS011;49686;51.880;5.632;2023-03-01T09:00:58;8.65;;;5.57;;
63536;SDS011;49686;51.880;5.632;2023-03-01T09:03:27;9.00;;;6.00;;
63536;SDS011;49686;51.880;5.632;2023-03-01T09:05:59;10.40;;;6.20;;
63536;SDS011;49686;51.880;5.632;2023-03-01T09:08:26;12.05;;;5.90;;
63536;SDS011;49686;51.880;5.632;2023-03-01T09:10:53;10.32;;;6.15;;
63536;SDS011;49686;51.880;5.632;2023-03-01T09:13:20;9.73;;;6.32;;
63536;SDS011;49686;51.880;5.632;2023-03-01T09:15:47;12.85;;;6.28;;
63536;SDS011;49686;51.880;5.632;2023-03-01T09:18:14;8.38;;;5.47;;
63536;SDS011;49686;51.880;5.632;2023-03-01T09:20:42;9.95;;;6.05;;
63536;SDS011;49686;51.880;5.632;2023-03-01T09:23:10;10.52;;;6.40;;
63536;SDS011;49686;51.880;5.632;2023-03-01T09:25:37;9.63;;;6.45;;
63536;SDS011;49686;51.880;5.632;2023-03-01T09:28:04;9.05;;;5.07;;
63536;SDS011;49686;51.880;5.632;2023-03-01T09:30:30;8.00;;;5.78;;
63536;SDS011;49686;51.880;5.632;2023-03-01T09:32:57;7.30;;;5.18;;
63536;SDS011;49686;51.880;5.632;2023-03-01T09:35:27;8.30;;;4.97;;
63536;SDS011;49686;51.880;5.632;2023-03-01T09:37:57;5.68;;;4.20;;
63536;SDS011;49686;51.880;5.632;2023-03-01T09:40:25;9.93;;;5.15;;
63536;SDS011;49686;51.880;5.632;2023-03-01T09:42:55;8.20;;;4.43;;
63536;SDS011;49686;51.880;5.632;2023-03-01T09:45:33;8.70;;;5.25;;
63536;SDS011;49686;51.880;5.632;2023-03-01T09:48:02;9.80;;;5.13;;
63536;SDS011;49686;51.880;5.632;2023-03-01T09:50:33;7.13;;;5.25;;
63536;SDS011;49686;51.880;5.632;2023-03-01T09:53:04;9.23;;;5.40;;
63536;SDS011;49686;51.880;5.632;2023-03-01T09:55:37;9.07;;;5.18;;
63536;SDS011;49686;51.880;5.632;2023-03-01T09:58:12;6.85;;;4.65;;
63536;SDS011;49686;51.880;5.632;2023-03-01T10:01:00;9.40;;;4.57;;
63536;SDS011;49686;51.880;5.632;2023-03-01T10:03:38;7.90;;;5.50;;
63536;SDS011;49686;51.880;5.632;2023-03-01T10:06:10;7.55;;;4.93;;
63536;SDS011;49686;51.880;5.632;2023-03-01T10:09:00;9.15;;;5.95;;
63536;SDS011;49686;51.880;5.632;2023-03-01T10:11:30;9.52;;;5.57;;
63536;SDS011;49686;51.880;5.632;2023-03-01T10:13:59;13.80;;;6.63;;
63536;SDS011;49686;51.880;5.632;2023-03-01T10:16:34;11.13;;;6.40;;
63536;SDS011;49686;51.880;5.632;2023-03-01T10:19:10;10.32;;;5.90;;
63536;SDS011;49686;51.880;5.632;2023-03-01T10:21:41;9.82;;;6.00;;
63536;SDS011;49686;51.880;5.632;2023-03-01T10:24:13;8.55;;;6.68;;
63536;SDS011;49686;51.880;5.632;2023-03-01T10:26:45;9.27;;;5.68;;
63536;SDS011;49686;51.880;5.632;2023-03-01T10:29:22;10.70;;;5.60;;
63536;SDS011;49686;51.880;5.632;2023-03-01T10:31:52;8.63;;;5.82;;
63536;SDS011;49686;51.880;5.632;2023-03-01T10:34:20;8.00;;;5.72;;
63536;SDS011;49686;51.880;5.632;2023-03-01T10:36:53;8.75;;;5.55;;
63536;SDS011;49686;51.880;5.632;2023-03-01T10:39:25;7.95;;;5.45;;
63536;SDS011;49686;51.880;5.632;2023-03-01T10:41:54;9.27;;;5.00;;
63536;SDS011;49686;51.880;5.632;2023-03-01T10:47:16;8.50;;;5.28;;
63536;SDS011;49686;51.880;5.632;2023-03-01T10:49:58;7.90;;;5.20;;
63536;SDS011;49686;51.880;5.632;2023-03-01T10:52:57;8.03;;;5.43;;
63536;SDS011;49686;51.880;5.632;2023-03-01T10:58:06;7.35;;;5.07;;
63536;SDS011;49686;51.880;5.632;2023-03-01T11:00:45;7.20;;;4.50;;
63536;SDS011;49686;51.880;5.632;2023-03-01T11:05:50;8.75;;;5.57;;
63536;SDS011;49686;51.880;5.632;2023-03-01T11:11:10;7.65;;;5.07;;
63536;SDS011;49686;51.880;5.632;2023-03-01T11:13:48;8.02;;;5.07;;
63536;SDS011;49686;51.880;5.632;2023-03-01T11:16:22;8.20;;;5.80;;
63536;SDS011;49686;51.880;5.632;2023-03-01T11:18:57;8.75;;;5.57;;
63536;SDS011;49686;51.880;5.632;2023-03-01T11:21:25;8.10;;;5.75;;
63536;SDS011;49686;51.880;5.632;2023-03-01T11:23:56;7.85;;;5.10;;
63536;SDS011;49686;51.880;5.632;2023-03-01T11:26:26;6.32;;;3.90;;
63536;SDS011;49686;51.880;5.632;2023-03-01T11:28:55;7.40;;;5.43;;
63536;SDS011;49686;51.880;5.632;2023-03-01T11:31:27;8.60;;;5.57;;
63536;SDS011;49686;51.880;5.632;2023-03-01T11:33:57;8.95;;;5.57;;
63536;SDS011;49686;51.880;5.632;2023-03-01T11:36:30;8.63;;;5.60;;
63536;SDS011;49686;51.880;5.632;2023-03-01T11:39:03;6.13;;;4.47;;
63536;SDS011;49686;51.880;5.632;2023-03-01T11:41:39;7.93;;;5.55;;
63536;SDS011;49686;51.880;5.632;2023-03-01T11:44:10;7.22;;;5.30;;
63536;SDS011;49686;51.880;5.632;2023-03-01T11:47:01;8.18;;;5.00;;
63536;SDS011;49686;51.880;5.632;2023-03-01T11:52:35;8.38;;;5.22;;
63536;SDS011;49686;51.880;5.632;2023-03-01T11:55:16;9.35;;;5.90;;
63536;SDS011;49686;51.880;5.632;2023-03-01T11:58:07;9.18;;;5.20;;
63536;SDS011;49686;51.880;5.632;2023-03-01T12:00:58;8.43;;;4.80;;
63536;SDS011;49686;51.880;5.632;2023-03-01T12:03:46;7.57;;;5.07;;
63536;SDS011;49686;51.880;5.632;2023-03-01T12:06:41;9.95;;;6.05;;
63536;SDS011;49686;51.880;5.632;2023-03-01T12:09:31;9.90;;;5.18;;
63536;SDS011;49686;51.880;5.632;2023-03-01T12:12:28;6.15;;;4.40;;
63536;SDS011;49686;51.880;5.632;2023-03-01T12:20:35;7.97;;;5.38;;
63536;SDS011;49686;51.880;5.632;2023-03-01T12:23:17;8.18;;;4.68;;
63536;SDS011;49686;51.880;5.632;2023-03-01T12:26:01;8.25;;;5.10;;
63536;SDS011;49686;51.880;5.632;2023-03-01T12:28:45;8.38;;;4.57;;
63536;SDS011;49686;51.880;5.632;2023-03-01T12:34:15;7.60;;;4.78;;
63536;SDS011;49686;51.880;5.632;2023-03-01T12:37:00;8.98;;;5.38;;
63536;SDS011;49686;51.880;5.632;2023-03-01T12:39:39;8.70;;;4.53;;
63536;SDS011;49686;51.880;5.632;2023-03-01T12:42:20;6.57;;;4.80;;
63536;SDS011;49686;51.880;5.632;2023-03-01T12:44:57;7.45;;;4.40;;
63536;SDS011;49686;51.880;5.632;2023-03-01T12:47:57;6.32;;;4.03;;
63536;SDS011;49686;51.880;5.632;2023-03-01T12:50:37;6.93;;;4.45;;
63536;SDS011;49686;51.880;5.632;2023-03-01T12:53:21;6.93;;;4.53;;
63536;SDS011;49686;51.880;5.632;2023-03-01T12:55:49;9.23;;;5.38;;
63536;SDS011;49686;51.880;5.632;2023-03-01T12:58:21;7.20;;;4.85;;
63536;SDS011;49686;51.880;5.632;2023-03-01T13:01:02;7.07;;;4.13;;
63536;SDS011;49686;51.880;5.632;2023-03-01T13:03:38;7.40;;;4.60;;
63536;SDS011;49686;51.880;5.632;2023-03-01T13:06:25;8.80;;;5.10;;
63536;SDS011;49686;51.880;5.632;2023-03-01T13:09:11;8.05;;;5.63;;
63536;SDS011;49686;51.880;5.632;2023-03-01T13:11:44;6.25;;;4.38;;
63536;SDS011;49686;51.880;5.632;2023-03-01T13:20:11;6.60;;;4.60;;
63536;SDS011;49686;51.880;5.632;2023-03-01T13:22:40;8.65;;;5.45;;
63536;SDS011;49686;51.880;5.632;2023-03-01T13:25:20;8.15;;;5.72;;
63536;SDS011;49686;51.880;5.632;2023-03-01T13:27:51;9.60;;;4.95;;
63536;SDS011;49686;51.880;5.632;2023-03-01T13:30:52;7.85;;;4.30;;
63536;SDS011;49686;51.880;5.632;2023-03-01T13:39:30;5.13;;;4.05;;
63536;SDS011;49686;51.880;5.632;2023-03-01T13:42:25;5.55;;;4.10;;
63536;SDS011;49686;51.880;5.632;2023-03-01T13:44:57;7.15;;;4.85;;
63536;SDS011;49686;51.880;5.632;2023-03-01T13:47:24;5.55;;;4.50;;
63536;SDS011;49686;51.880;5.632;2023-03-01T13:49:56;7.93;;;5.28;;
63536;SDS011;49686;51.880;5.632;2023-03-01T13:52:34;5.70;;;4.90;;
63536;SDS011;49686;51.880;5.632;2023-03-01T13:55:03;8.20;;;4.28;;
63536;SDS011;49686;51.880;5.632;2023-03-01T13:57:41;6.85;;;4.88;;
63536;SDS011;49686;51.880;5.632;2023-03-01T14:02:38;6.88;;;5.07;;
63536;SDS011;49686;51.880;5.632;2023-03-01T14:05:08;4.68;;;3.65;;
63536;SDS011;49686;51.880;5.632;2023-03-01T14:07:36;6.55;;;3.90;;
63536;SDS011;49686;51.880;5.632;2023-03-01T14:10:03;5.32;;;3.80;;
63536;SDS011;49686;51.880;5.632;2023-03-01T14:12:36;6.65;;;4.15;;
63536;SDS011;49686;51.880;5.632;2023-03-01T14:15:10;5.65;;;4.43;;
63536;SDS011;49686;51.880;5.632;2023-03-01T14:17:49;6.45;;;4.20;;
63536;SDS011;49686;51.880;5.632;2023-03-01T14:20:27;6.70;;;4.40;;
63536;SDS011;49686;51.880;5.632;2023-03-01T14:22:57;6.72;;;4.65;;
63536;SDS011;49686;51.880;5.632;2023-03-01T14:25:27;6.53;;;4.38;;
63536;SDS011;49686;51.880;5.632;2023-03-01T14:27:56;6.32;;;4.00;;
63536;SDS011;49686;51.880;5.632;2023-03-01T14:30:27;7.32;;;4.53;;
63536;SDS011;49686;51.880;5.632;2023-03-01T14:32:59;6.78;;;4.63;;
63536;SDS011;49686;51.880;5.632;2023-03-01T14:35:29;7.60;;;4.18;;
63536;SDS011;49686;51.880;5.632;2023-03-01T14:37:57;6.80;;;3.65;;
63536;SDS011;49686;51.880;5.632;2023-03-01T14:40:26;6.45;;;4.20;;
63536;SDS011;49686;51.880;5.632;2023-03-01T14:42:56;5.93;;;4.47;;
63536;SDS011;49686;51.880;5.632;2023-03-01T14:45:26;5.68;;;4.20;;
63536;SDS011;49686;51.880;5.632;2023-03-01T14:47:55;8.27;;;4.63;;
63536;SDS011;49686;51.880;5.632;2023-03-01T14:50:26;6.10;;;3.90;;
63536;SDS011;49686;51.880;5.632;2023-03-01T14:52:56;7.15;;;4.55;;
63536;SDS011;49686;51.880;5.632;2023-03-01T14:55:26;5.80;;;3.70;;
63536;SDS011;49686;51.880;5.632;2023-03-01T14:57:55;8.13;;;4.80;;
63536;SDS011;49686;51.880;5.632;2023-03-01T15:00:24;5.82;;;4.20;;
63536;SDS011;49686;51.880;5.632;2023-03-01T15:02:54;7.15;;;4.70;;
63536;SDS011;49686;51.880;5.632;2023-03-01T15:05:24;7.07;;;4.28;;
63536;SDS011;49686;51.880;5.632;2023-03-01T15:07:56;8.45;;;5.07;;
63536;SDS011;49686;51.880;5.632;2023-03-01T15:10:25;7.25;;;4.88;;
63536;SDS011;49686;51.880;5.632;2023-03-01T15:12:53;8.50;;;4.90;;
63536;SDS011;49686;51.880;5.632;2023-03-01T15:18:13;9.13;;;5.15;;
63536;SDS011;49686;51.880;5.632;2023-03-01T15:20:43;10.48;;;4.65;;
63536;SDS011;49686;51.880;5.632;2023-03-01T15:23:19;7.70;;;5.20;;
63536;SDS011;49686;51.880;5.632;2023-03-01T15:25:48;8.98;;;4.80;;
63536;SDS011;49686;51.880;5.632;2023-03-01T15:28:17;6.43;;;4.18;;
63536;SDS011;49686;51.880;5.632;2023-03-01T15:30:46;8.82;;;4.90;;
63536;SDS011;49686;51.880;5.632;2023-03-01T15:33:27;8.05;;;5.90;;
63536;SDS011;49686;51.880;5.632;2023-03-01T15:35:56;7.15;;;5.28;;
63536;SDS011;49686;51.880;5.632;2023-03-01T15:38:29;7.60;;;5.15;;
63536;SDS011;49686;51.880;5.632;2023-03-01T15:41:02;5.97;;;4.78;;
63536;SDS011;49686;51.880;5.632;2023-03-01T15:43:38;9.15;;;5.55;;
63536;SDS011;49686;51.880;5.632;2023-03-01T15:48:52;6.35;;;4.72;;
63536;SDS011;49686;51.880;5.632;2023-03-01T15:53:51;6.43;;;4.47;;
63536;SDS011;49686;51.880;5.632;2023-03-01T15:56:20;7.50;;;4.88;;
63536;SDS011;49686;51.880;5.632;2023-03-01T15:58:46;5.40;;;3.50;;
63536;SDS011;49686;51.880;5.632;2023-03-01T16:01:14;7.25;;;4.90;;